Terminal Aerodrome Forecast
Issued by NWS Shreveport, LA

Home | Current Version | Previous Version | Text Only | Print | Product List | Glossary On
Versions: 1 2 3 4 5 6 7 8 9 10 11 12 13 14 15 16 17 18 19
000
FTUS44 KSHV 220649 AAA
TAFMLU
TAF AMD
KMLU 220649Z 2207/2306 20009KT P6SM BKN026 BKN035
     FM221200 19006KT P6SM VCTS BKN015CB
      TEMPO 2212/2216 VRB15G25KT 2SM TSRA BKN010CB
     FM221600 22007KT P6SM -RA BKN025 OVC080
     FM221900 29004KT P6SM BKN045 BKN120
     FM222300 35005KT P6SM OVC025
     FM230000 33011KT P6SM OVC025=

USA.gov is the U.S. government's official web portal to all federal, state and local government web resources and services.